banner cross window.jpg

Welcome

We live stream our services every

Sunday @ 10:30 AM

Check this website for details.

 

 

Login





Sunday Worship

 

Sunday morning worship is where you will sense the heartbeat of Hope United. It is the time of the week when all generations come together in community.

  •  To express the wholeness of our faith in praise and thanksgiving.
  •  To seek support amid doubts, fears and sorrows.
  •  To share times of joy and celebration.
  •  To explore life’s questions in the context of our faith.

Services at Hope United blend traditional and contemporary elements in word, action and music to provide food for the soul no matter where you are on your faith journey. All are welcome here…

 

The Order of Service and Announcements for each Sunday Service are available by date in the listing below.

 

 

File Size Added Hits
2020-05-03 ZOOM Prayer Service.pdf 198.02 KB MAY 03, 2020 Download 311


2020-03-15.pdf 197.24 KB MAR 15, 2020 Download 280


2020-03-08 Hymn Sing Celebration Service.pdf 1.04 MB MAR 08, 2020 Download 530


2020-03-08 Announcements.pdf 152.16 KB MAR 08, 2020 Download 445


2020-03-01.pdf 171.95 KB MAR 02, 2020 Download 267


2020-02-23.pdf 178.38 KB FEB 23, 2020 Download 289


2020-02-16.pdf 185.21 KB FEB 16, 2020 Download 311


2020-02-09.pdf 199.73 KB FEB 09, 2020 Download 286


2020-02-02.pdf 204.15 KB FEB 02, 2020 Download 285


2020-01-26.pdf 408.89 KB JAN 26, 2020 Download 2915


2020-01-19.pdf 200.98 KB JAN 19, 2020 Download 284


2020-01-12 Announcements.pdf 64.29 KB JAN 12, 2020 Download 326


2020-01-05.pdf 145.27 KB JAN 05, 2020 Download 299


2019-12-29.pdf 118.56 KB DEC 29, 2019 Download 343


2019-12-24 8pm.pdf 162.92 KB DEC 24, 2019 Download 293


2019-12-24 6pm.pdf 124.96 KB DEC 24, 2019 Download 277


2019-12-22.pdf 209.36 KB DEC 22, 2019 Download 291


2019-12-15.pdf 292.2 KB DEC 15, 2019 Download 305


2019-12-08.pdf 173.04 KB DEC 08, 2019 Download 307


2019-12-01.pdf 164.35 KB DEC 01, 2019 Download 357




For DOWNLOAD is used JotLoader component © V. Kanich 2007-2009